Sint-Martens-Latem, Belgium
Current Conditions -  °F | °C
As of 12:55 PM on Thursday 30 Oct 2014 (Local Time) from EHFS Reporting Station
Clear Clear  
Wind Chill: 59°   Ceiling: Unl
Heat Index: 59°   Visibility: 4mi
Dew Point: 57°   Wind: 10mph
Humidity: 94%   Direction: 190°S
Pressure: 30.15"   Gusts: NA
Location:  51.01°N, 3.64°E
Report Text: EHFS 301155Z AUTO 19009KT 7000 NSC 15/14 Q1021
Loading
Personal Weather Stations






























Interactive Weather Map
Tropical Storm Tracking
New forecast layout! Learn more

10-Day Weather Forecast

Advertisements
Track Severe Weather on mobile